createdAt,value
2019-04-25T00:02:21.286Z,99.90
2019-04-25T00:04:51.542Z,99.90
2019-04-25T00:07:21.670Z,99.90
2019-04-25T00:09:53.101Z,99.90
2019-04-25T00:12:22.300Z,99.90
2019-04-25T00:14:51.801Z,99.90
2019-04-25T00:17:21.448Z,99.90
2019-04-25T00:19:51.096Z,99.90
2019-04-25T00:22:25.022Z,99.90
2019-04-25T00:25:15.036Z,99.90
2019-04-25T00:27:34.512Z,99.90
2019-04-25T00:30:03.757Z,99.90
2019-04-25T00:32:33.249Z,99.90
2019-04-25T00:35:02.033Z,99.90
2019-04-25T00:37:32.329Z,99.90
2019-04-25T00:40:01.612Z,99.90
2019-04-25T00:42:32.000Z,99.90
2019-04-25T00:45:02.360Z,99.90
2019-04-25T00:47:31.733Z,99.90
2019-04-25T00:50:02.581Z,99.90
2019-04-25T00:52:31.935Z,99.90
2019-04-25T00:55:01.913Z,99.90
2019-04-25T00:57:32.067Z,99.90
2019-04-25T01:00:19.531Z,99.90
2019-04-25T01:02:53.477Z,99.90
2019-04-25T01:05:23.511Z,99.90
2019-04-25T01:07:53.298Z,99.90
2019-04-25T01:10:23.112Z,99.90
2019-04-25T01:12:53.158Z,99.90
2019-04-25T01:15:22.774Z,99.90
2019-04-25T01:17:53.204Z,99.90
2019-04-25T01:20:23.666Z,99.90
2019-04-25T01:22:54.326Z,99.90
2019-04-25T01:25:24.194Z,99.90
2019-04-25T01:27:53.899Z,99.90
2019-04-25T01:30:24.966Z,99.90
2019-04-25T01:32:54.547Z,99.90
2019-04-25T01:35:43.095Z,99.90
2019-04-25T01:38:14.221Z,99.90
2019-04-25T01:41:05.811Z,99.90
2019-04-25T01:43:43.669Z,99.90
2019-04-25T01:46:14.598Z,99.90
2019-04-25T01:48:43.373Z,99.90
2019-04-25T01:51:14.112Z,99.90
2019-04-25T01:53:44.142Z,99.90
2019-04-25T01:56:13.591Z,99.90
2019-04-25T01:58:43.770Z,99.90
2019-04-25T02:01:14.397Z,99.90
2019-04-25T02:03:44.242Z,99.90
2019-04-25T02:06:13.684Z,99.90
2019-04-25T02:08:44.035Z,99.90
2019-04-25T02:11:14.857Z,99.90
2019-04-25T02:13:44.055Z,99.90
2019-04-25T02:16:14.194Z,99.90
2019-04-25T02:18:43.579Z,99.90
2019-04-25T02:21:13.755Z,99.90
2019-04-25T02:23:44.185Z,99.90
2019-04-25T02:26:18.203Z,99.90
2019-04-25T02:28:43.796Z,99.90
2019-04-25T02:31:17.968Z,99.90
2019-04-25T02:33:44.313Z,99.90
2019-04-25T02:36:15.034Z,99.90
2019-04-25T02:38:44.154Z,99.90
2019-04-25T02:41:14.695Z,99.90
2019-04-25T02:43:45.106Z,99.90
2019-04-25T02:46:18.677Z,99.90
2019-04-25T02:49:09.107Z,99.90
2019-04-25T02:51:41.471Z,99.90
2019-04-25T02:54:10.055Z,99.90
2019-04-25T02:56:40.290Z,99.90
2019-04-25T02:59:09.339Z,99.90
2019-04-25T03:01:38.389Z,99.90
2019-04-25T03:04:10.737Z,99.90
2019-04-25T03:06:37.744Z,99.90
2019-04-25T03:09:09.805Z,99.90
2019-04-25T03:11:38.860Z,99.90
2019-04-25T03:14:09.986Z,99.90
2019-04-25T03:16:38.079Z,99.90
2019-04-25T03:19:20.500Z,99.90
2019-04-25T03:21:50.892Z,99.90
2019-04-25T03:24:19.828Z,99.90
2019-04-25T03:26:48.511Z,99.90
2019-04-25T03:29:17.271Z,99.90
2019-04-25T03:31:46.007Z,99.90
2019-04-25T03:34:20.317Z,99.90
2019-04-25T03:36:45.069Z,99.90
2019-04-25T03:39:14.834Z,99.90
2019-04-25T03:41:45.509Z,99.90
2019-04-25T03:44:14.790Z,99.90
2019-04-25T03:46:44.162Z,99.90
2019-04-25T03:49:13.917Z,99.90
2019-04-25T03:51:43.851Z,99.90
2019-04-25T03:54:14.293Z,99.90
2019-04-25T03:56:51.867Z,99.90
2019-04-25T03:59:14.610Z,99.90
2019-04-25T04:01:44.355Z,99.90
2019-04-25T04:04:16.336Z,99.90
2019-04-25T04:06:45.124Z,99.90
2019-04-25T04:09:14.294Z,99.90
2019-04-25T04:11:43.974Z,99.90
2019-04-25T04:14:14.490Z,99.90
2019-04-25T04:16:44.723Z,99.90
2019-04-25T04:19:15.586Z,99.90
2019-04-25T04:21:53.222Z,99.90
2019-04-25T04:24:25.795Z,99.90
2019-04-25T04:27:03.710Z,99.90
2019-04-25T04:29:33.084Z,99.90
2019-04-25T04:32:03.070Z,99.90
2019-04-25T04:34:33.634Z,99.90
2019-04-25T04:37:03.608Z,99.90
2019-04-25T04:39:33.880Z,99.90
2019-04-25T04:42:03.840Z,99.90
2019-04-25T04:44:34.269Z,99.90
2019-04-25T04:47:03.957Z,99.90
2019-04-25T04:49:34.108Z,99.90
2019-04-25T04:52:04.489Z,99.90
2019-04-25T04:54:34.445Z,99.90
2019-04-25T04:57:16.637Z,99.90
2019-04-25T04:59:34.555Z,99.90
2019-04-25T05:02:10.676Z,99.90
2019-04-25T05:04:54.033Z,99.90
2019-04-25T05:07:25.332Z,99.90
2019-04-25T05:09:54.329Z,99.90
2019-04-25T05:12:24.093Z,99.90
2019-04-25T05:14:53.682Z,99.90
2019-04-25T05:17:23.713Z,99.90
2019-04-25T05:19:53.311Z,99.90
2019-04-25T05:22:24.288Z,99.90
2019-04-25T05:24:53.576Z,99.90
2019-04-25T05:27:37.549Z,99.90
2019-04-25T05:29:53.990Z,99.90
2019-04-25T05:32:25.116Z,99.90
2019-04-25T05:34:53.300Z,99.90
2019-04-25T05:37:24.105Z,99.90
2019-04-25T05:39:53.622Z,99.90
2019-04-25T05:42:26.716Z,99.90
2019-04-25T05:44:57.035Z,99.90
2019-04-25T05:47:27.042Z,99.90
2019-04-25T05:49:55.929Z,99.90
2019-04-25T05:52:25.241Z,99.90
2019-04-25T05:54:54.926Z,99.90
2019-04-25T05:57:24.644Z,99.90
2019-04-25T05:59:53.763Z,99.90
2019-04-25T06:02:24.486Z,99.90
2019-04-25T06:04:53.519Z,99.90
2019-04-25T06:07:24.613Z,99.90
2019-04-25T06:09:57.331Z,99.90
2019-04-25T06:12:28.026Z,99.90
2019-04-25T06:14:56.781Z,99.90
2019-04-25T06:17:36.045Z,99.90
2019-04-25T06:20:09.208Z,99.90
2019-04-25T06:22:59.040Z,99.90
2019-04-25T06:25:32.943Z,99.90
2019-04-25T06:28:00.306Z,99.90
2019-04-25T06:30:29.712Z,99.80
2019-04-25T06:32:58.604Z,98.20
2019-04-25T06:35:27.616Z,97.20
2019-04-25T06:37:57.663Z,96.30
2019-04-25T06:40:26.315Z,95.00
2019-04-25T06:42:55.961Z,93.00
2019-04-25T06:45:26.675Z,91.00
2019-04-25T06:47:57.110Z,90.20
2019-04-25T06:50:27.073Z,88.90
2019-04-25T06:52:55.879Z,87.60
2019-04-25T06:55:26.399Z,86.00
2019-04-25T06:57:55.832Z,84.50
2019-04-25T07:00:27.740Z,83.80
2019-04-25T07:02:55.141Z,81.90
2019-04-25T07:05:30.493Z,80.30
2019-04-25T07:07:54.154Z,79.90
2019-04-25T07:10:24.162Z,78.30
2019-04-25T07:12:54.370Z,76.10
2019-04-25T07:15:25.629Z,75.60
2019-04-25T07:17:54.209Z,73.50
2019-04-25T07:20:25.696Z,71.10
2019-04-25T07:22:53.753Z,68.70
2019-04-25T07:25:26.309Z,68.50
2019-04-25T07:28:23.835Z,69.80
2019-04-25T07:30:59.063Z,70.80
2019-04-25T07:33:35.929Z,70.90
2019-04-25T07:36:04.928Z,70.30
2019-04-25T07:38:34.697Z,69.00
2019-04-25T07:41:03.867Z,66.70
2019-04-25T07:43:34.139Z,64.80
2019-04-25T07:46:03.357Z,61.90
2019-04-25T07:48:36.596Z,61.60
2019-04-25T07:51:05.745Z,61.00
2019-04-25T07:53:35.906Z,60.00
2019-04-25T07:56:05.223Z,59.10
2019-04-25T07:58:49.204Z,58.70
2019-04-25T08:01:11.796Z,58.00
2019-04-25T08:03:40.412Z,57.50
2019-04-25T08:06:08.994Z,56.60
2019-04-25T08:08:38.124Z,56.10
2019-04-25T08:11:09.022Z,55.30
2019-04-25T08:13:39.896Z,54.20
2019-04-25T08:16:25.978Z,53.30
2019-04-25T08:18:54.570Z,52.70
2019-04-25T08:21:23.999Z,52.20
2019-04-25T08:23:53.349Z,50.50
2019-04-25T08:26:23.663Z,50.10
2019-04-25T08:28:57.487Z,50.00
2019-04-25T08:31:23.508Z,49.50
2019-04-25T08:33:53.602Z,48.30
2019-04-25T08:36:23.394Z,48.20
2019-04-25T08:38:53.449Z,49.00
2019-04-25T08:41:23.916Z,48.60
2019-04-25T08:43:54.443Z,49.10
2019-04-25T08:46:25.252Z,49.00
2019-04-25T08:49:02.367Z,48.30
2019-04-25T08:51:40.099Z,48.70
2019-04-25T08:54:25.805Z,48.60
2019-04-25T08:56:56.190Z,48.60
2019-04-25T08:59:42.549Z,48.90
2019-04-25T09:02:10.537Z,48.40
2019-04-25T09:04:59.940Z,48.50
2019-04-25T09:07:28.829Z,48.00
2019-04-25T09:09:58.273Z,47.30
2019-04-25T09:12:27.149Z,47.30
2019-04-25T09:14:55.838Z,47.50
2019-04-25T09:17:24.656Z,47.90
2019-04-25T09:19:54.207Z,47.30
2019-04-25T09:22:24.222Z,47.50
2019-04-25T09:24:53.994Z,46.20
2019-04-25T09:27:25.637Z,46.30
2019-04-25T09:29:54.277Z,46.70
2019-04-25T09:32:23.835Z,46.60
2019-04-25T09:34:54.179Z,45.90
2019-04-25T09:37:24.619Z,45.00
2019-04-25T09:40:00.901Z,44.90
2019-04-25T09:42:29.525Z,43.80
2019-04-25T09:45:18.910Z,43.20
2019-04-25T09:47:49.183Z,43.00
2019-04-25T09:50:33.861Z,42.80
2019-04-25T09:53:04.505Z,42.30
2019-04-25T09:55:37.857Z,41.60
2019-04-25T09:58:15.211Z,40.70
2019-04-25T10:00:48.756Z,40.20
2019-04-25T10:03:17.567Z,40.00
2019-04-25T10:05:46.858Z,39.10
2019-04-25T10:08:15.767Z,37.90
2019-04-25T10:10:44.623Z,38.40
2019-04-25T10:13:13.545Z,38.80
2019-04-25T10:16:08.648Z,38.10
2019-04-25T10:18:37.896Z,38.20
2019-04-25T10:21:09.908Z,36.70
2019-04-25T10:23:39.826Z,36.40
2019-04-25T10:26:10.444Z,37.70
2019-04-25T10:28:41.549Z,37.50
2019-04-25T10:31:11.199Z,37.30
2019-04-25T10:33:39.990Z,36.70
2019-04-25T10:36:11.015Z,37.10
2019-04-25T10:38:40.575Z,37.50
2019-04-25T10:41:09.890Z,36.30
2019-04-25T10:43:39.517Z,36.90
2019-04-25T10:46:09.214Z,36.80
2019-04-25T10:48:39.918Z,36.50
2019-04-25T10:51:09.199Z,36.40
2019-04-25T10:53:37.863Z,37.00
2019-04-25T10:56:06.896Z,37.80
2019-04-25T10:58:35.834Z,37.20
2019-04-25T11:01:05.464Z,36.90
2019-04-25T11:03:39.799Z,36.20
2019-04-25T11:06:09.195Z,36.30
2019-04-25T11:08:37.711Z,36.80
2019-04-25T11:11:06.719Z,36.80
2019-04-25T11:13:36.032Z,37.80
2019-04-25T11:16:06.357Z,37.70
2019-04-25T11:18:34.983Z,37.10
2019-04-25T11:21:05.882Z,38.00
2019-04-25T11:23:36.234Z,38.30
2019-04-25T11:26:05.189Z,38.20
2019-04-25T11:28:34.505Z,38.10
2019-04-25T11:31:05.248Z,37.30
2019-04-25T11:33:35.057Z,38.00
2019-04-25T11:36:04.253Z,38.50
2019-04-25T11:38:37.629Z,37.50
2019-04-25T11:41:10.588Z,38.50
2019-04-25T11:43:39.338Z,38.80
2019-04-25T11:46:07.864Z,38.80
2019-04-25T11:48:36.554Z,38.30
2019-04-25T11:51:06.154Z,39.30
2019-04-25T11:53:35.228Z,39.00
2019-04-25T11:56:03.952Z,37.80
2019-04-25T11:58:32.997Z,37.50
2019-04-25T12:01:03.404Z,37.80
2019-04-25T12:03:33.624Z,38.50
2019-04-25T12:06:02.918Z,37.90
2019-04-25T12:08:31.632Z,37.60
2019-04-25T12:11:00.387Z,38.30
2019-04-25T12:13:28.890Z,38.00
2019-04-25T12:15:58.337Z,37.30
2019-04-25T12:18:27.218Z,37.90
2019-04-25T12:20:57.983Z,37.90
2019-04-25T12:23:26.540Z,37.70
2019-04-25T12:25:56.049Z,37.80
2019-04-25T12:28:24.643Z,38.20
2019-04-25T12:30:55.365Z,37.50
2019-04-25T12:33:24.489Z,37.70
2019-04-25T12:35:56.881Z,36.60
2019-04-25T12:38:25.916Z,36.20
2019-04-25T12:40:55.333Z,37.70
2019-04-25T12:43:26.167Z,36.80
2019-04-25T12:45:56.948Z,37.60
2019-04-25T12:48:25.938Z,38.90
2019-04-25T12:50:55.436Z,37.20
2019-04-25T12:53:25.426Z,37.00
2019-04-25T12:55:54.943Z,37.30
2019-04-25T12:58:23.805Z,37.90
2019-04-25T13:00:55.059Z,37.10
2019-04-25T13:03:24.124Z,38.10
2019-04-25T13:05:52.872Z,38.00
2019-04-25T13:08:21.335Z,37.90
2019-04-25T13:10:49.961Z,37.60
2019-04-25T13:13:17.664Z,37.50
2019-04-25T13:15:46.324Z,38.50
2019-04-25T13:18:15.050Z,38.40
2019-04-25T13:20:43.869Z,37.70
2019-04-25T13:23:14.339Z,38.00
2019-04-25T13:25:44.159Z,37.20
2019-04-25T13:28:14.574Z,38.60
2019-04-25T13:30:45.168Z,38.60
2019-04-25T13:33:33.473Z,37.30
2019-04-25T13:36:12.994Z,38.10
2019-04-25T13:38:41.584Z,37.80
2019-04-25T13:41:10.672Z,38.10
2019-04-25T13:43:38.433Z,39.00
2019-04-25T13:46:06.291Z,39.20
2019-04-25T13:48:35.338Z,38.50
2019-04-25T13:51:04.140Z,37.40
2019-04-25T13:53:33.530Z,38.20
2019-04-25T13:56:03.459Z,38.80
2019-04-25T13:58:32.161Z,38.60
2019-04-25T14:01:12.428Z,38.10
2019-04-25T14:03:30.641Z,38.00
2019-04-25T14:05:58.683Z,36.90
2019-04-25T14:08:27.434Z,37.60
2019-04-25T14:10:56.065Z,38.10
2019-04-25T14:13:25.594Z,38.80
2019-04-25T14:15:58.784Z,38.40
2019-04-25T14:18:29.306Z,38.90
2019-04-25T14:21:05.484Z,36.90
2019-04-25T14:23:34.565Z,36.30
2019-04-25T14:26:03.982Z,36.80
2019-04-25T14:28:31.914Z,37.50
2019-04-25T14:31:03.213Z,36.60
2019-04-25T14:33:31.234Z,36.60
2019-04-25T14:35:59.842Z,37.70
2019-04-25T14:38:28.267Z,37.00
2019-04-25T14:40:56.195Z,37.60
2019-04-25T14:43:24.891Z,37.40
2019-04-25T14:45:52.836Z,38.00
2019-04-25T14:48:22.576Z,38.00
2019-04-25T14:50:53.378Z,38.50
2019-04-25T14:53:24.159Z,39.60
2019-04-25T14:56:10.530Z,39.30
2019-04-25T14:58:40.401Z,39.30
2019-04-25T15:01:08.516Z,38.90
2019-04-25T15:03:36.382Z,38.70
2019-04-25T15:06:07.424Z,38.80
2019-04-25T15:08:35.318Z,39.00
2019-04-25T15:11:03.777Z,39.30
2019-04-25T15:13:31.898Z,39.30
2019-04-25T15:16:00.763Z,39.60
2019-04-25T15:18:29.341Z,39.90
2019-04-25T15:20:57.143Z,40.30
2019-04-25T15:23:25.416Z,40.50
2019-04-25T15:25:54.205Z,39.50
2019-04-25T15:28:24.405Z,38.80
2019-04-25T15:30:53.268Z,39.10
2019-04-25T15:33:21.150Z,39.70
2019-04-25T15:35:50.666Z,40.40
2019-04-25T15:38:33.559Z,40.50
2019-04-25T15:41:03.189Z,40.70
2019-04-25T15:43:33.442Z,40.30
2019-04-25T15:46:04.329Z,40.70
2019-04-25T15:48:35.499Z,40.70
2019-04-25T15:51:04.285Z,40.80
2019-04-25T15:53:32.968Z,40.40
2019-04-25T15:56:01.569Z,40.70
2019-04-25T15:58:30.254Z,40.60
2019-04-25T16:00:58.943Z,41.20
2019-04-25T16:03:28.312Z,41.20
2019-04-25T16:05:57.609Z,41.90
2019-04-25T16:08:26.617Z,42.10
2019-04-25T16:10:56.218Z,41.40
2019-04-25T16:13:25.929Z,42.30
2019-04-25T16:15:55.543Z,41.80
2019-04-25T16:18:24.236Z,41.50
2019-04-25T16:20:53.069Z,41.10
2019-04-25T16:23:21.738Z,41.40
2019-04-25T16:25:50.564Z,40.90
2019-04-25T16:28:19.158Z,41.30
2019-04-25T16:30:47.862Z,41.40
2019-04-25T16:33:16.625Z,42.10
2019-04-25T16:35:45.605Z,42.70
2019-04-25T16:38:14.896Z,43.20
2019-04-25T16:40:43.719Z,43.20
2019-04-25T16:43:14.051Z,43.20
2019-04-25T16:45:42.738Z,43.40
2019-04-25T16:48:11.288Z,43.20
2019-04-25T16:50:40.023Z,43.10
2019-04-25T16:53:09.363Z,43.30
2019-04-25T16:55:38.798Z,44.10
2019-04-25T16:58:07.772Z,43.90
2019-04-25T17:00:47.751Z,44.00
2019-04-25T17:03:17.511Z,44.10
2019-04-25T17:05:46.207Z,44.30
2019-04-25T17:08:15.301Z,44.40
2019-04-25T17:10:44.438Z,44.50
2019-04-25T17:13:13.261Z,44.60
2019-04-25T17:15:58.776Z,44.80
2019-04-25T17:18:29.718Z,45.10
2019-04-25T17:21:04.717Z,45.10
2019-04-25T17:23:34.480Z,45.60
2019-04-25T17:26:03.639Z,45.90
2019-04-25T17:28:34.928Z,46.30
2019-04-25T17:31:10.733Z,46.40
2019-04-25T17:33:41.538Z,46.50
2019-04-25T17:36:15.857Z,46.70
2019-04-25T17:38:49.193Z,46.90
2019-04-25T17:41:17.907Z,47.20
2019-04-25T17:43:46.663Z,47.40
2019-04-25T17:46:17.295Z,47.70
2019-04-25T17:48:46.782Z,48.20
2019-04-25T17:51:15.835Z,48.70
2019-04-25T17:53:44.511Z,48.70
2019-04-25T17:56:14.123Z,48.90
2019-04-25T17:58:44.201Z,49.10
2019-04-25T18:01:14.611Z,49.40
2019-04-25T18:03:44.026Z,49.80
2019-04-25T18:06:12.888Z,50.00
2019-04-25T18:08:41.928Z,50.10
2019-04-25T18:11:10.866Z,50.40
2019-04-25T18:13:40.216Z,50.50
2019-04-25T18:16:20.515Z,50.70
2019-04-25T18:19:08.285Z,51.00
2019-04-25T18:21:37.122Z,51.10
2019-04-25T18:24:13.627Z,51.40
2019-04-25T18:26:52.822Z,52.30
2019-04-25T18:29:27.737Z,52.40
2019-04-25T18:31:56.600Z,52.70
2019-04-25T18:34:32.957Z,52.80
2019-04-25T18:37:06.231Z,52.70
2019-04-25T18:39:40.169Z,53.00
2019-04-25T18:42:14.240Z,53.20
2019-04-25T18:44:44.061Z,53.20
2019-04-25T18:47:13.272Z,53.50
2019-04-25T18:49:48.553Z,53.80
2019-04-25T18:52:37.197Z,53.70
2019-04-25T18:55:10.563Z,54.00
2019-04-25T18:57:45.852Z,54.30
2019-04-25T19:00:20.245Z,54.20
2019-04-25T19:02:52.145Z,54.20
2019-04-25T19:05:39.521Z,54.50
2019-04-25T19:08:09.333Z,54.70
2019-04-25T19:10:39.580Z,54.70
2019-04-25T19:13:12.883Z,55.10
2019-04-25T19:15:41.316Z,55.20
2019-04-25T19:18:10.801Z,55.50
2019-04-25T19:20:41.712Z,55.40
2019-04-25T19:23:11.451Z,55.50
2019-04-25T19:25:41.979Z,56.20
2019-04-25T19:28:11.428Z,55.50
2019-04-25T19:30:41.439Z,55.70
2019-04-25T19:33:11.888Z,56.10
2019-04-25T19:35:42.167Z,56.20
2019-04-25T19:38:11.547Z,56.30
2019-04-25T19:40:45.963Z,56.60
2019-04-25T19:43:18.303Z,57.00
2019-04-25T19:45:47.822Z,57.10
2019-04-25T19:48:18.555Z,57.20
2019-04-25T19:50:48.636Z,57.50
2019-04-25T19:53:19.463Z,57.60
2019-04-25T19:55:49.696Z,57.70
2019-04-25T19:58:19.052Z,57.80
2019-04-25T20:00:50.933Z,57.70
2019-04-25T20:03:22.675Z,57.70
2019-04-25T20:05:54.030Z,57.70
2019-04-25T20:08:40.989Z,58.00
2019-04-25T20:11:13.868Z,58.10
2019-04-25T20:13:43.910Z,58.20
2019-04-25T20:16:14.975Z,58.40
2019-04-25T20:18:45.696Z,58.80
2019-04-25T20:21:16.843Z,58.80
2019-04-25T20:23:46.518Z,59.00
2019-04-25T20:26:20.942Z,59.10
2019-04-25T20:28:51.235Z,59.70
2019-04-25T20:31:22.045Z,60.60
2019-04-25T20:34:03.436Z,60.00
2019-04-25T20:36:28.713Z,60.50
2019-04-25T20:39:00.620Z,60.50
2019-04-25T20:41:30.426Z,60.70
2019-04-25T20:44:03.143Z,60.90
2019-04-25T20:46:32.187Z,61.20
2019-04-25T20:49:02.754Z,62.10
2019-04-25T20:51:33.500Z,62.50
2019-04-25T20:54:02.216Z,63.10
2019-04-25T20:56:33.831Z,63.20
2019-04-25T20:59:02.789Z,63.60
2019-04-25T21:01:34.991Z,64.10
2019-04-25T21:04:12.947Z,64.40
2019-04-25T21:06:36.575Z,65.10
2019-04-25T21:09:07.231Z,65.60
2019-04-25T21:11:35.948Z,66.60
2019-04-25T21:14:06.580Z,67.20
2019-04-25T21:16:50.411Z,68.20
2019-04-25T21:19:20.711Z,69.60
2019-04-25T21:21:49.523Z,70.80
2019-04-25T21:24:19.140Z,71.80
2019-04-25T21:26:47.770Z,72.20
2019-04-25T21:29:16.678Z,73.40
2019-04-25T21:31:45.358Z,74.10
2019-04-25T21:34:25.377Z,74.60
2019-04-25T21:36:44.278Z,75.40
2019-04-25T21:39:15.146Z,75.40
2019-04-25T21:42:02.214Z,75.60
2019-04-25T21:44:31.286Z,76.00
2019-04-25T21:47:00.596Z,75.70
2019-04-25T21:49:29.613Z,76.70
2019-04-25T21:51:59.061Z,77.00
2019-04-25T21:54:27.769Z,77.10
2019-04-25T21:56:57.447Z,77.10
2019-04-25T21:59:26.419Z,77.30
2019-04-25T22:01:56.295Z,78.10
2019-04-25T22:04:37.881Z,78.40
2019-04-25T22:06:56.811Z,78.90
2019-04-25T22:09:26.395Z,79.50
2019-04-25T22:11:57.220Z,79.80
2019-04-25T22:14:26.629Z,80.60
2019-04-25T22:16:55.709Z,81.20
2019-04-25T22:19:25.736Z,82.10
2019-04-25T22:21:54.706Z,82.30
2019-04-25T22:24:23.502Z,83.10
2019-04-25T22:26:53.741Z,83.30
2019-04-25T22:29:22.942Z,84.00
2019-04-25T22:31:59.580Z,83.80
2019-04-25T22:34:52.604Z,83.00
2019-04-25T22:37:19.161Z,82.10
2019-04-25T22:39:48.061Z,81.70
2019-04-25T22:42:16.918Z,81.60
2019-04-25T22:44:45.748Z,81.70
2019-04-25T22:47:17.388Z,81.90
2019-04-25T22:49:44.817Z,82.30
2019-04-25T22:52:13.676Z,82.70
2019-04-25T22:54:42.608Z,82.90
2019-04-25T22:57:12.600Z,83.90
2019-04-25T22:59:41.768Z,84.90
2019-04-25T23:02:12.050Z,85.60
2019-04-25T23:04:42.747Z,86.50
2019-04-25T23:07:12.292Z,87.20
2019-04-25T23:09:41.276Z,87.50
2019-04-25T23:12:10.585Z,88.50
2019-04-25T23:14:39.598Z,89.30
2019-04-25T23:17:09.377Z,90.10
2019-04-25T23:19:38.033Z,90.90
2019-04-25T23:22:07.414Z,91.00
2019-04-25T23:24:38.478Z,91.50
2019-04-25T23:27:27.386Z,91.80
2019-04-25T23:29:56.033Z,92.10
2019-04-25T23:32:24.957Z,92.70
2019-04-25T23:34:53.814Z,92.80
2019-04-25T23:37:23.028Z,93.20
2019-04-25T23:39:51.627Z,93.50
2019-04-25T23:42:20.308Z,93.70
2019-04-25T23:44:49.166Z,93.90
2019-04-25T23:47:17.889Z,94.10
2019-04-25T23:49:48.210Z,94.30
2019-04-25T23:52:17.676Z,94.80
2019-04-25T23:54:46.383Z,95.00
2019-04-25T23:57:15.596Z,95.70
2019-04-25T23:59:44.359Z,96.40
